Time;durP1;ratioP1;P1;durP2;ratioP2;P2;SDS_P1;SDS_P2;PMS_P1;PMS_P2;Temp;Humidity;BMP_temperature;BMP_pressure;BME280_temperature;BME280_humidity;BME280_pressure;Samples;Min_cycle;Max_cycle;Signal;HPM_P1;HPM_P2
2023/05/21 00:00:21;;;;;;;3.70;1.95;;;11.40;99.90;;;;;;5040505;28;20036;-57
2023/05/21 00:02:47;;;;;;;1.85;1.27;;;11.40;99.90;;;;;;5040909;28;20023;-53
2023/05/21 00:05:14;;;;;;;2.63;1.17;;;11.50;99.90;;;;;;5039215;28;20022;-54
2023/05/21 00:07:40;;;;;;;4.25;1.70;;;11.40;99.90;;;;;;5040061;28;20032;-55
2023/05/21 00:10:06;;;;;;;5.15;1.90;;;11.40;99.90;;;;;;5037890;28;20033;-56
2023/05/21 00:12:31;;;;;;;3.22;2.00;;;11.40;99.90;;;;;;5021116;28;20048;-54
2023/05/21 00:14:58;;;;;;;3.40;1.60;;;11.30;99.90;;;;;;5043849;28;20487;-56
2023/05/21 00:17:24;;;;;;;6.57;1.85;;;11.30;99.90;;;;;;5041265;28;20047;-57
2023/05/21 00:19:50;;;;;;;3.50;1.50;;;11.40;99.90;;;;;;5041702;28;20280;-55
2023/05/21 00:22:16;;;;;;;3.78;1.70;;;11.40;99.90;;;;;;5037891;28;20389;-56
2023/05/21 00:24:44;;;;;;;4.40;1.65;;;11.30;99.90;;;;;;5041181;28;20032;-56
2023/05/21 00:27:11;;;;;;;3.58;1.85;;;11.30;99.90;;;;;;5047150;28;20099;-57
2023/05/21 00:29:37;;;;;;;5.15;1.77;;;11.30;99.90;;;;;;5047825;28;20033;-57
2023/05/21 00:32:02;;;;;;;4.25;1.67;;;11.30;99.90;;;;;;5030332;28;20029;-55
2023/05/21 00:34:28;;;;;;;2.55;1.52;;;11.30;99.90;;;;;;5048169;28;20063;-56
2023/05/21 00:36:54;;;;;;;5.40;1.85;;;11.30;99.90;;;;;;5048652;28;20020;-51
2023/05/21 00:39:20;;;;;;;3.00;1.85;;;11.20;99.90;;;;;;5050096;28;20322;-56
2023/05/21 00:41:47;;;;;;;4.18;2.03;;;11.20;99.90;;;;;;5033541;28;20060;-55
2023/05/21 00:44:13;;;;;;;4.47;2.10;;;11.10;99.90;;;;;;5049796;28;20127;-56
2023/05/21 00:46:40;;;;;;;5.20;1.70;;;11.10;99.90;;;;;;5049806;28;20016;-53
2023/05/21 00:49:06;;;;;;;4.75;2.10;;;11.10;99.90;;;;;;5049245;28;20590;-56
2023/05/21 00:51:32;;;;;;;3.17;1.25;;;11.00;99.90;;;;;;5048422;28;20083;-57
2023/05/21 00:53:58;;;;;;;3.25;1.48;;;11.10;99.90;;;;;;5048449;28;20029;-54
2023/05/21 00:56:26;;;;;;;5.30;2.38;;;11.00;99.90;;;;;;5049594;28;20538;-56
2023/05/21 00:58:53;;;;;;;5.50;1.70;;;11.00;99.90;;;;;;5045697;28;20479;-57
2023/05/21 01:01:18;;;;;;;4.05;1.70;;;10.90;99.90;;;;;;5047151;28;20084;-52
2023/05/21 01:03:47;;;;;;;5.57;2.03;;;11.00;99.90;;;;;;5046375;28;20111;-58
2023/05/21 01:06:13;;;;;;;4.72;1.88;;;10.90;99.90;;;;;;5032516;28;20035;-57
2023/05/21 01:08:40;;;;;;;6.00;1.67;;;10.90;99.90;;;;;;5044989;28;20029;-55
2023/05/21 01:11:07;;;;;;;4.47;1.85;;;10.90;99.90;;;;;;5032156;28;20017;-55
2023/05/21 01:13:36;;;;;;;3.75;1.60;;;10.90;99.90;;;;;;5048413;28;20189;-54
2023/05/21 01:16:05;;;;;;;3.58;1.60;;;10.90;99.90;;;;;;5051450;28;20025;-55
2023/05/21 01:18:36;;;;;;;4.07;2.10;;;10.80;99.90;;;;;;5046092;28;20033;-57
2023/05/21 01:21:02;;;;;;;2.58;1.70;;;10.80;99.90;;;;;;5049806;28;20040;-58
2023/05/21 01:23:28;;;;;;;2.45;1.58;;;10.80;99.90;;;;;;5049398;28;20025;-56
2023/05/21 01:25:53;;;;;;;4.75;2.25;;;10.80;99.90;;;;;;5049224;28;20025;-56
2023/05/21 01:28:21;;;;;;;3.80;1.38;;;10.80;99.90;;;;;;5049915;28;20414;-57
2023/05/21 01:30:47;;;;;;;5.10;2.20;;;10.80;99.90;;;;;;5048423;28;20037;-55
2023/05/21 01:33:33;;;;;;;4.45;2.20;;;10.80;99.90;;;;;;5050459;28;20021;-57
2023/05/21 01:36:03;;;;;;;;;;;10.80;99.90;;;;;;5048313;28;20040;-55
2023/05/21 01:38:36;;;;;;;2.67;1.75;;;10.80;99.90;;;;;;5046850;28;19936;-55
2023/05/21 01:41:06;;;;;;;4.50;2.08;;;10.80;99.90;;;;;;5043784;28;20024;-55
2023/05/21 01:43:35;;;;;;;2.28;1.63;;;10.80;99.90;;;;;;5043900;28;20033;-52
2023/05/21 01:46:01;;;;;;;4.45;1.90;;;10.70;99.90;;;;;;5044879;28;20029;-57
2023/05/21 01:48:28;;;;;;;6.85;2.00;;;10.70;99.90;;;;;;5046555;28;20120;-53
2023/05/21 01:50:59;;;;;;;3.50;1.50;;;10.70;99.90;;;;;;5046801;28;20515;-55
2023/05/21 01:53:25;;;;;;;4.57;2.25;;;10.70;99.90;;;;;;5046557;28;20045;-52
2023/05/21 01:55:51;;;;;;;6.15;2.20;;;10.70;99.90;;;;;;5042901;28;20445;-56
2023/05/21 01:58:17;;;;;;;4.07;1.85;;;10.70;99.90;;;;;;5046990;28;20025;-57
2023/05/21 02:00:46;;;;;;;6.88;2.20;;;10.70;99.90;;;;;;5040919;28;20033;-54
2023/05/21 02:03:13;;;;;;;3.28;1.60;;;10.70;99.90;;;;;;5046103;28;20025;-56
2023/05/21 02:05:39;;;;;;;3.92;2.28;;;10.70;99.90;;;;;;5045135;28;20494;-57
2023/05/21 02:08:07;;;;;;;5.10;2.05;;;10.60;99.90;;;;;;5047637;28;20051;-55
2023/05/21 02:10:33;;;;;;;5.05;2.55;;;10.70;99.90;;;;;;5029874;28;20017;-55
2023/05/21 02:12:58;;;;;;;6.30;2.38;;;10.70;99.90;;;;;;5045650;28;20074;-56
2023/05/21 02:15:24;;;;;;;5.03;2.10;;;10.70;99.90;;;;;;5046381;28;20446;-55
2023/05/21 02:17:50;;;;;;;2.95;2.00;;;10.60;99.90;;;;;;5025506;28;20037;-56
2023/05/21 02:20:16;;;;;;;3.83;2.28;;;10.60;99.90;;;;;;5040624;28;20104;-56
2023/05/21 02:22:47;;;;;;;7.20;2.53;;;10.60;99.90;;;;;;5042544;28;20035;-55
2023/05/21 02:25:14;;;;;;;8.05;2.92;;;10.60;99.90;;;;;;5044405;28;20040;-56
2023/05/21 02:27:41;;;;;;;4.40;2.45;;;10.60;99.90;;;;;;5042250;28;20103;-56
2023/05/21 02:30:11;;;;;;;4.72;2.53;;;10.60;99.90;;;;;;5043270;28;20017;-55
2023/05/21 02:32:41;;;;;;;9.15;2.17;;;10.60;99.90;;;;;;5046774;28;20025;-56
2023/05/21 02:35:08;;;;;;;5.32;1.85;;;10.60;99.90;;;;;;5047282;28;20035;-54
2023/05/21 02:37:36;;;;;;;6.43;2.88;;;10.60;99.90;;;;;;5045911;28;20040;-55
2023/05/21 02:40:06;;;;;;;4.07;2.47;;;10.60;99.90;;;;;;5045884;28;20155;-54
2023/05/21 02:42:32;;;;;;;5.18;2.83;;;10.60;99.90;;;;;;5045846;28;20049;-56
2023/05/21 02:44:58;;;;;;;5.57;2.13;;;10.70;99.90;;;;;;5044367;28;20451;-50
2023/05/21 02:47:24;;;;;;;3.92;2.25;;;10.70;99.90;;;;;;5044796;28;20116;-56
2023/05/21 02:49:51;;;;;;;5.70;2.53;;;10.70;99.90;;;;;;5044135;28;20020;-54
2023/05/21 02:52:17;;;;;;;5.38;3.00;;;10.70;99.90;;;;;;5043994;28;20132;-54
2023/05/21 02:54:46;;;;;;;5.68;3.42;;;10.70;99.90;;;;;;5043544;28;20025;-56
2023/05/21 02:57:11;;;;;;;6.45;2.70;;;10.60;99.90;;;;;;5042948;28;20043;-55
2023/05/21 02:59:37;;;;;;;5.00;2.40;;;10.60;99.90;;;;;;5044447;28;20040;-56
2023/05/21 03:02:03;;;;;;;6.63;2.50;;;10.60;99.90;;;;;;5042967;28;20040;-53
2023/05/21 03:04:28;;;;;;;6.35;2.88;;;10.60;99.90;;;;;;5044587;28;20522;-55
2023/05/21 03:06:55;;;;;;;4.47;2.47;;;10.60;99.90;;;;;;5043395;28;20029;-57
2023/05/21 03:09:21;;;;;;;8.10;3.40;;;10.60;99.90;;;;;;5041568;28;20039;-58
2023/05/21 03:11:47;;;;;;;5.53;3.28;;;10.50;99.90;;;;;;5041698;28;20043;-56
2023/05/21 03:14:13;;;;;;;7.13;2.83;;;10.50;99.90;;;;;;5041740;28;20124;-57
2023/05/21 03:16:40;;;;;;;6.93;2.90;;;10.50;99.90;;;;;;5038929;28;20459;-52
2023/05/21 03:19:06;;;;;;;4.70;2.33;;;10.40;99.90;;;;;;5042786;28;20044;-57
2023/05/21 03:21:32;;;;;;;5.35;3.50;;;10.50;99.90;;;;;;5028576;28;20206;-58
2023/05/21 03:23:59;;;;;;;7.63;3.15;;;10.50;99.90;;;;;;5040912;28;20562;-56
2023/05/21 03:26:28;;;;;;;5.15;2.90;;;10.40;99.90;;;;;;5043170;28;20072;-55
2023/05/21 03:28:57;;;;;;;4.10;2.75;;;10.50;99.90;;;;;;5037516;28;20083;-57
2023/05/21 03:31:24;;;;;;;7.28;3.80;;;10.40;99.90;;;;;;5038846;28;20554;-55
2023/05/21 03:33:50;;;;;;;3.78;2.80;;;10.40;99.90;;;;;;5043288;28;20039;-53
2023/05/21 03:36:16;;;;;;;4.85;3.05;;;10.40;99.90;;;;;;5045397;28;20100;-52
2023/05/21 03:38:41;;;;;;;9.00;3.53;;;10.30;99.90;;;;;;5040912;28;20043;-57
2023/05/21 03:41:08;;;;;;;7.72;3.53;;;10.40;99.90;;;;;;5043542;28;20029;-56
2023/05/21 03:43:33;;;;;;;4.35;3.03;;;10.40;99.90;;;;;;5039938;28;20169;-55
2023/05/21 03:45:59;;;;;;;7.13;3.10;;;10.40;99.90;;;;;;5037464;28;20502;-55
2023/05/21 03:48:25;;;;;;;8.10;3.42;;;10.40;99.90;;;;;;5038199;28;20300;-56
2023/05/21 03:50:50;;;;;;;5.47;3.10;;;10.40;99.90;;;;;;5040430;28;20406;-54
2023/05/21 03:53:16;;;;;;;8.02;4.18;;;10.40;99.90;;;;;;5044626;28;20033;-59
2023/05/21 03:55:42;;;;;;;8.73;3.63;;;10.30;99.90;;;;;;5029086;28;20116;-56
2023/05/21 03:58:09;;;;;;;7.50;4.20;;;10.30;99.90;;;;;;5044951;28;20107;-57
2023/05/21 04:00:36;;;;;;;4.63;3.90;;;10.30;99.90;;;;;;5043993;28;20457;-57
2023/05/21 04:03:03;;;;;;;5.30;3.45;;;10.20;99.90;;;;;;5043999;28;20296;-55
2023/05/21 04:05:30;;;;;;;10.32;4.15;;;10.30;99.90;;;;;;5043873;28;20037;-55
2023/05/21 04:07:57;;;;;;;8.15;4.25;;;10.30;99.90;;;;;;5043788;28;20040;-55
2023/05/21 04:10:23;;;;;;;7.15;4.43;;;10.30;99.90;;;;;;5043685;28;20033;-56
2023/05/21 04:12:51;;;;;;;5.50;3.25;;;10.40;99.90;;;;;;5044753;28;20028;-50
2023/05/21 04:15:20;;;;;;;6.72;3.45;;;10.40;99.90;;;;;;5044487;28;20104;-52
2023/05/21 04:17:45;;;;;;;8.20;4.07;;;10.40;99.90;;;;;;5042380;28;20079;-59
2023/05/21 04:20:15;;;;;;;8.13;4.45;;;10.50;99.90;;;;;;5039796;28;20460;-57
2023/05/21 04:22:41;;;;;;;8.02;4.53;;;10.50;99.90;;;;;;5043657;28;20016;-53
2023/05/21 04:25:07;;;;;;;8.73;5.10;;;10.50;99.90;;;;;;5044442;28;20136;-56
2023/05/21 04:27:33;;;;;;;6.50;4.97;;;10.60;99.90;;;;;;5028262;28;20574;-56
2023/05/21 04:29:59;;;;;;;8.13;4.72;;;10.60;99.90;;;;;;5039080;28;20047;-53
2023/05/21 04:32:29;;;;;;;13.75;5.00;;;10.60;99.90;;;;;;5040357;28;20051;-53
2023/05/21 04:34:55;;;;;;;9.02;4.32;;;10.60;99.90;;;;;;5028999;28;20021;-53
2023/05/21 04:37:23;;;;;;;6.95;4.57;;;10.70;99.90;;;;;;5041688;28;20051;-51
2023/05/21 04:39:49;;;;;;;7.70;4.25;;;10.70;99.90;;;;;;5040596;28;20036;-56
2023/05/21 04:42:14;;;;;;;9.77;4.93;;;10.80;99.90;;;;;;5041980;28;20661;-53
2023/05/21 04:44:40;;;;;;;6.65;4.20;;;10.90;99.90;;;;;;5043565;28;20056;-55
2023/05/21 04:47:06;;;;;;;8.82;4.50;;;11.00;99.90;;;;;;5040838;28;20124;-54
2023/05/21 04:49:33;;;;;;;10.57;4.68;;;11.00;99.90;;;;;;5040114;28;20021;-56
2023/05/21 04:52:00;;;;;;;4.70;4.05;;;11.10;99.90;;;;;;5040415;28;20009;-54
2023/05/21 04:54:26;;;;;;;7.22;4.18;;;11.20;99.90;;;;;;5041208;28;20037;-52
2023/05/21 04:56:52;;;;;;;8.90;4.32;;;11.20;99.90;;;;;;5042571;28;20040;-54
2023/05/21 04:59:18;;;;;;;11.45;4.82;;;11.20;99.90;;;;;;5027576;28;20260;-56
2023/05/21 05:01:44;;;;;;;10.32;4.68;;;11.30;99.90;;;;;;5022813;28;20120;-56
2023/05/21 05:04:09;;;;;;;8.75;4.00;;;11.40;99.90;;;;;;5043131;28;20574;-55
2023/05/21 05:06:35;;;;;;;6.38;4.13;;;11.40;99.90;;;;;;5041902;28;20031;-51
2023/05/21 05:09:01;;;;;;;11.38;4.60;;;11.50;99.90;;;;;;5040585;28;20031;-54
2023/05/21 05:11:26;;;;;;;12.88;4.53;;;11.50;99.90;;;;;;5043489;28;20057;-55
2023/05/21 05:13:52;;;;;;;7.18;4.75;;;11.70;99.90;;;;;;5044817;28;20031;-52
2023/05/21 05:16:23;;;;;;;8.40;4.10;;;11.70;99.90;;;;;;5047396;28;20041;-55
2023/05/21 05:18:50;;;;;;;6.63;3.63;;;11.80;99.90;;;;;;5043504;28;20482;-52
2023/05/21 05:21:16;;;;;;;7.82;4.15;;;11.90;99.90;;;;;;5043196;28;20283;-58
2023/05/21 05:23:42;;;;;;;7.30;4.43;;;12.00;99.90;;;;;;5044608;28;20510;-58
2023/05/21 05:26:07;;;;;;;6.50;3.80;;;12.10;99.90;;;;;;5046013;28;20028;-55
2023/05/21 05:28:33;;;;;;;8.38;4.10;;;12.20;99.90;;;;;;5041661;28;20025;-56
2023/05/21 05:30:58;;;;;;;6.38;4.63;;;12.20;99.90;;;;;;5047256;28;20611;-54
2023/05/21 05:33:24;;;;;;;6.47;4.25;;;12.30;99.90;;;;;;5045571;28;20475;-55
2023/05/21 05:35:49;;;;;;;6.50;4.40;;;12.30;99.90;;;;;;5048169;28;20021;-55
2023/05/21 05:38:15;;;;;;;8.57;5.15;;;12.40;99.90;;;;;;5047104;28;20016;-56
2023/05/21 05:40:41;;;;;;;11.70;5.35;;;12.40;99.90;;;;;;5047665;28;20058;-57
2023/05/21 05:43:07;;;;;;;8.23;3.72;;;12.50;99.90;;;;;;5047147;28;20032;-56
2023/05/21 05:45:33;;;;;;;5.97;3.97;;;12.50;99.90;;;;;;5045120;28;20043;-53
2023/05/21 05:47:58;;;;;;;9.40;4.97;;;12.60;99.90;;;;;;5047133;28;20025;-53
2023/05/21 05:50:24;;;;;;;7.63;3.80;;;12.70;99.90;;;;;;5046825;28;20064;-53
2023/05/21 05:52:50;;;;;;;7.90;4.38;;;12.70;99.90;;;;;;5047292;28;20024;-55
2023/05/21 05:55:15;;;;;;;8.75;4.32;;;12.90;99.90;;;;;;5029333;28;20023;-56
2023/05/21 05:57:41;;;;;;;8.02;4.90;;;13.00;99.90;;;;;;5047241;28;20492;-53
2023/05/21 06:00:09;;;;;;;7.88;4.35;;;13.10;99.90;;;;;;5046693;28;20362;-57
2023/05/21 06:02:36;;;;;;;6.22;3.95;;;13.20;99.90;;;;;;5047527;28;20086;-58
2023/05/21 06:05:02;;;;;;;7.38;4.32;;;13.30;99.90;;;;;;5046923;28;20420;-56
2023/05/21 06:07:28;;;;;;;8.02;4.05;;;13.40;99.90;;;;;;5026903;28;20411;-56
2023/05/21 06:09:54;;;;;;;6.65;4.35;;;13.50;99.90;;;;;;5039774;28;20022;-55
2023/05/21 06:12:19;;;;;;;5.97;4.13;;;13.60;99.90;;;;;;5043208;28;20096;-58
2023/05/21 06:14:46;;;;;;;9.00;3.88;;;13.70;99.90;;;;;;5046718;28;20013;-58
2023/05/21 06:17:11;;;;;;;7.00;3.80;;;13.70;99.90;;;;;;5044802;28;20029;-56
2023/05/21 06:19:37;;;;;;;7.47;4.50;;;13.90;99.90;;;;;;5046523;28;20537;-55
2023/05/21 06:22:03;;;;;;;6.40;3.85;;;14.00;99.90;;;;;;5046601;28;20308;-56
2023/05/21 06:24:29;;;;;;;7.43;4.78;;;14.00;99.90;;;;;;5041831;28;20064;-56
2023/05/21 06:26:54;;;;;;;10.90;4.20;;;14.10;99.90;;;;;;5045210;28;20079;-56
2023/05/21 06:29:20;;;;;;;8.48;4.88;;;14.20;99.90;;;;;;5040645;28;20021;-57
2023/05/21 06:31:46;;;;;;;6.93;4.35;;;14.30;99.90;;;;;;5046489;28;20357;-56
2023/05/21 06:34:12;;;;;;;7.22;4.40;;;14.40;99.90;;;;;;5045682;28;20025;-57
2023/05/21 06:36:37;;;;;;;8.65;4.50;;;14.60;99.90;;;;;;5046219;28;20032;-58
2023/05/21 06:39:03;;;;;;;8.48;4.90;;;14.80;99.90;;;;;;5046551;28;20422;-56
2023/05/21 06:41:28;;;;;;;6.32;4.78;;;15.00;99.90;;;;;;5046734;28;20509;-56
2023/05/21 06:43:54;;;;;;;7.88;4.70;;;15.20;99.90;;;;;;5046463;28;20056;-57
2023/05/21 06:46:20;;;;;;;7.47;4.85;;;15.40;99.90;;;;;;5045587;28;20037;-56
2023/05/21 06:48:45;;;;;;;7.05;4.45;;;15.60;99.90;;;;;;5045875;28;20021;-56
2023/05/21 06:51:11;;;;;;;6.10;4.25;;;15.80;99.90;;;;;;5046231;28;20450;-54
2023/05/21 06:53:37;;;;;;;8.63;5.05;;;15.90;99.90;;;;;;5046176;28;20534;-56
2023/05/21 06:56:03;;;;;;;6.38;4.75;;;16.00;99.90;;;;;;5041520;28;20526;-56
2023/05/21 06:58:30;;;;;;;6.75;4.97;;;16.10;99.90;;;;;;5045725;28;20033;-58
2023/05/21 07:00:59;;;;;;;6.00;4.88;;;16.20;99.90;;;;;;5030778;28;20562;-56
2023/05/21 07:03:26;;;;;;;7.68;5.32;;;16.20;99.90;;;;;;5046154;28;20109;-57
2023/05/21 07:05:55;;;;;;;7.90;4.90;;;16.20;99.90;;;;;;5044656;28;20035;-55
2023/05/21 07:08:20;;;;;;;6.88;5.50;;;16.30;99.90;;;;;;5044708;28;20033;-58
2023/05/21 07:10:46;;;;;;;6.10;5.10;;;16.30;99.90;;;;;;5044308;28;20111;-56
2023/05/21 07:13:12;;;;;;;8.63;5.32;;;16.40;99.90;;;;;;5042905;28;20083;-55
2023/05/21 07:15:37;;;;;;;7.60;4.82;;;16.40;99.90;;;;;;5043558;28;20037;-53
2023/05/21 07:18:03;;;;;;;5.55;5.05;;;16.50;99.90;;;;;;5025011;28;20064;-60
2023/05/21 07:20:28;;;;;;;7.57;6.40;;;16.50;99.90;;;;;;5027565;28;20071;-57
2023/05/21 07:22:54;;;;;;;8.80;6.00;;;16.50;99.90;;;;;;5045509;28;20029;-57
2023/05/21 07:25:20;;;;;;;9.88;5.80;;;16.50;99.90;;;;;;5045415;28;20429;-55
2023/05/21 07:27:45;;;;;;;7.53;4.88;;;16.50;99.90;;;;;;5045182;28;20196;-56
2023/05/21 07:30:11;;;;;;;8.93;5.95;;;16.60;99.90;;;;;;5044937;28;20025;-57
2023/05/21 07:32:36;;;;;;;7.57;5.47;;;16.70;99.90;;;;;;5045259;28;20025;-57
2023/05/21 07:35:02;;;;;;;7.07;5.40;;;16.80;99.90;;;;;;5044590;28;20048;-55
2023/05/21 07:37:28;;;;;;;8.15;5.65;;;17.00;99.90;;;;;;5026877;28;20155;-56
2023/05/21 07:39:57;;;;;;;8.23;5.97;;;17.00;99.90;;;;;;5045363;28;20104;-57
2023/05/21 07:42:24;;;;;;;6.10;5.55;;;17.00;99.90;;;;;;5027756;28;20108;-57
2023/05/21 07:44:49;;;;;;;7.47;6.00;;;17.20;99.90;;;;;;5045450;28;20024;-53
2023/05/21 07:47:15;;;;;;;6.53;5.72;;;17.30;99.90;;;;;;5042606;28;20052;-60
2023/05/21 07:49:40;;;;;;;7.93;5.90;;;17.50;99.90;;;;;;5022269;28;20029;-56
2023/05/21 07:52:06;;;;;;;9.15;5.70;;;17.60;99.90;;;;;;5044991;28;20025;-59
2023/05/21 07:54:31;;;;;;;6.95;5.38;;;17.70;99.90;;;;;;5041286;28;20068;-60
2023/05/21 07:56:57;;;;;;;5.78;4.88;;;17.70;99.90;;;;;;5043048;28;20384;-59
2023/05/21 07:59:24;;;;;;;10.27;6.22;;;17.80;99.90;;;;;;5042719;28;20063;-55
2023/05/21 08:01:49;;;;;;;9.60;5.97;;;17.80;99.90;;;;;;5044659;28;20025;-58
2023/05/21 08:04:15;;;;;;;8.30;5.32;;;17.90;99.90;;;;;;5044179;28;20017;-55
2023/05/21 08:06:40;;;;;;;8.73;6.40;;;18.00;99.90;;;;;;5040851;28;20506;-59
2023/05/21 08:09:07;;;;;;;8.07;5.82;;;18.10;99.90;;;;;;5042936;28;20021;-60
2023/05/21 08:11:33;;;;;;;8.70;6.00;;;18.20;99.90;;;;;;5045308;28;20017;-59
2023/05/21 08:13:58;;;;;;;9.38;6.75;;;18.40;99.90;;;;;;5044615;28;20108;-57
2023/05/21 08:16:24;;;;;;;8.45;6.28;;;18.40;99.90;;;;;;5044488;28;20452;-59
2023/05/21 08:18:50;;;;;;;7.97;6.13;;;18.50;99.90;;;;;;5044514;28;20140;-60
2023/05/21 08:21:16;;;;;;;8.63;6.63;;;18.60;99.90;;;;;;5045416;28;20095;-55
2023/05/21 08:23:42;;;;;;;9.48;5.97;;;18.70;99.90;;;;;;5044275;28;20136;-58
2023/05/21 08:26:08;;;;;;;12.55;6.95;;;18.80;99.90;;;;;;5028867;28;20036;-59
2023/05/21 08:28:35;;;;;;;7.57;6.32;;;18.90;99.90;;;;;;5043643;28;20021;-58
2023/05/21 08:31:00;;;;;;;7.55;6.85;;;18.80;99.90;;;;;;5041298;28;20090;-59
2023/05/21 08:33:27;;;;;;;9.07;6.68;;;18.90;99.90;;;;;;5044173;28;20124;-57
2023/05/21 08:35:52;;;;;;;8.95;7.35;;;19.00;99.90;;;;;;5041221;28;20033;-55
2023/05/21 08:38:18;;;;;;;7.93;6.30;;;19.10;99.90;;;;;;5044710;28;20555;-56
2023/05/21 08:40:45;;;;;;;9.73;7.32;;;19.20;99.90;;;;;;5043793;28;20025;-56
2023/05/21 08:43:13;;;;;;;10.30;7.80;;;19.30;99.90;;;;;;5044882;28;20063;-57
2023/05/21 08:45:43;;;;;;;7.68;6.88;;;19.40;99.90;;;;;;5021784;28;20486;-58
2023/05/21 08:48:10;;;;;;;11.75;7.00;;;19.40;99.90;;;;;;5047440;28;20036;-56
2023/05/21 08:50:36;;;;;;;8.75;6.85;;;19.50;99.90;;;;;;5047762;28;20155;-58
2023/05/21 08:53:02;;;;;;;8.93;6.88;;;19.60;99.90;;;;;;5049047;28;20538;-58
2023/05/21 08:55:27;;;;;;;11.02;8.48;;;19.70;99.90;;;;;;5046863;28;20506;-58
2023/05/21 08:57:53;;;;;;;9.27;7.28;;;19.80;99.90;;;;;;5048491;28;20574;-56
2023/05/21 09:00:19;;;;;;;8.75;7.20;;;19.80;99.90;;;;;;5046691;28;20025;-59
2023/05/21 09:02:45;;;;;;;8.73;6.35;;;19.90;99.90;;;;;;5048914;28;20032;-58
2023/05/21 09:05:12;;;;;;;8.02;7.25;;;20.00;99.90;;;;;;5047490;28;20017;-58
2023/05/21 09:07:55;;;;;;;11.02;7.85;;;20.10;99.90;;;;;;5047784;28;20048;-60
2023/05/21 09:10:27;;;;;;;7.78;6.97;;;20.10;99.90;;;;;;5045445;28;20032;-59
2023/05/21 09:12:53;;;;;;;12.18;7.35;;;20.10;99.90;;;;;;5048168;28;20091;-59
2023/05/21 09:15:19;;;;;;;9.57;8.13;;;20.10;99.90;;;;;;5045862;28;20029;-59
2023/05/21 09:17:46;;;;;;;9.93;8.13;;;20.00;99.90;;;;;;5029378;28;20915;-59
2023/05/21 09:20:15;;;;;;;13.07;7.82;;;19.90;99.90;;;;;;5043412;28;20063;-58
2023/05/21 09:22:45;;;;;;;10.73;8.52;;;19.90;99.90;;;;;;5047087;28;20055;-57
2023/05/21 09:25:12;;;;;;;8.32;7.43;;;19.90;99.90;;;;;;5029238;28;20056;-56
2023/05/21 09:27:38;;;;;;;8.30;7.47;;;19.90;99.90;;;;;;5044811;28;20117;-57
2023/05/21 09:30:09;;;;;;;8.73;7.90;;;19.80;99.90;;;;;;5047224;28;20051;-59
2023/05/21 09:32:34;;;;;;;10.75;8.77;;;19.90;99.90;;;;;;5047523;28;20092;-60
2023/05/21 09:35:09;;;;;;;10.05;9.02;;;19.90;99.90;;;;;;5047577;28;20801;-59
2023/05/21 09:37:39;;;;;;;11.67;8.03;;;19.80;99.90;;;;;;5047153;28;20025;-60
2023/05/21 09:40:16;;;;;;;12.20;9.18;;;19.80;99.90;;;;;;5029291;28;20564;-58
2023/05/21 09:42:46;;;;;;;8.57;7.75;;;19.90;99.90;;;;;;5046681;28;20495;-59
2023/05/21 09:45:18;;;;;;;9.82;6.93;;;19.90;99.90;;;;;;5029850;28;20044;-55
2023/05/21 09:47:48;;;;;;;9.95;6.57;;;20.00;99.90;;;;;;5045998;28;20025;-63
2023/05/21 09:50:19;;;;;;;8.63;7.72;;;20.00;99.90;;;;;;5046801;28;20032;-61
2023/05/21 09:52:45;;;;;;;9.18;7.35;;;20.00;99.90;;;;;;5046198;28;20597;-59
2023/05/21 09:55:12;;;;;;;9.57;7.15;;;19.90;99.90;;;;;;5046567;28;20107;-60
2023/05/21 09:57:47;;;;;;;9.20;7.55;;;19.90;99.90;;;;;;5044683;28;20036;-58
2023/05/21 10:00:23;;;;;;;9.88;6.43;;;19.90;99.90;;;;;;5045065;28;20040;-58
2023/05/21 10:02:56;;;;;;;8.65;6.40;;;20.00;99.90;;;;;;5045752;28;20116;-59
2023/05/21 10:05:25;;;;;;;13.73;7.63;;;20.10;99.90;;;;;;5044156;28;20041;-61
2023/05/21 10:07:53;;;;;;;6.10;5.50;;;20.10;99.90;;;;;;5045905;28;20074;-61
2023/05/21 10:13:46;;;;;;;8.98;6.72;;;20.30;99.90;;;;;;5047081;28;20051;-62
2023/05/21 10:16:12;;;;;;;10.27;7.13;;;20.40;99.90;;;;;;5042753;28;20086;-59
2023/05/21 10:18:38;;;;;;;9.82;7.47;;;20.40;99.90;;;;;;5030494;28;20079;-56
2023/05/21 10:21:06;;;;;;;9.25;7.03;;;20.50;99.90;;;;;;5041913;28;20033;-57
2023/05/21 10:23:33;;;;;;;8.27;6.85;;;20.50;99.90;;;;;;5046664;28;20951;-59
2023/05/21 10:25:59;;;;;;;7.30;6.15;;;20.60;99.90;;;;;;5042458;28;20036;-60
2023/05/21 10:28:25;;;;;;;9.95;7.05;;;20.80;99.90;;;;;;5046764;28;20033;-59
2023/05/21 10:30:53;;;;;;;11.98;8.85;;;21.00;99.90;;;;;;5042977;28;20120;-61
2023/05/21 10:33:21;;;;;;;11.57;8.70;;;21.20;99.90;;;;;;5044015;28;20071;-62
2023/05/21 10:35:48;;;;;;;10.18;8.13;;;21.30;99.90;;;;;;5047241;28;20474;-58
2023/05/21 10:38:18;;;;;;;9.32;8.20;;;21.20;99.90;;;;;;5045789;28;20164;-60
2023/05/21 10:40:43;;;;;;;13.50;8.02;;;21.20;99.90;;;;;;5042964;28;20060;-62
2023/05/21 10:43:29;;;;;;;10.20;7.85;;;21.30;99.90;;;;;;5041178;28;20079;-59
2023/05/21 10:46:13;;;;;;;9.27;7.75;;;21.40;99.90;;;;;;5043305;28;20037;-59
2023/05/21 10:49:13;;;;;;;7.57;6.82;;;21.50;99.90;;;;;;5044055;28;20385;-59
2023/05/21 10:51:56;;;;;;;10.77;7.22;;;21.70;99.90;;;;;;5046674;28;20025;-60
2023/05/21 10:54:37;;;;;;;10.88;7.30;;;21.70;99.90;;;;;;5043890;28;20025;-59
2023/05/21 10:57:53;;;;;;;8.88;7.55;;;21.80;99.90;;;;;;5044687;28;20470;-61
2023/05/21 11:00:20;;;;;;;10.25;7.72;;;21.90;99.90;;;;;;4940896;28;20061;-59
2023/05/21 11:02:50;;;;;;;13.98;9.10;;;21.80;99.90;;;;;;4956394;28;20035;-62
2023/05/21 11:05:16;;;;;;;10.48;8.60;;;21.80;99.90;;;;;;4999630;28;20120;-60
2023/05/21 11:07:57;;;;;;;9.35;7.82;;;21.90;99.90;;;;;;5025221;28;20124;-63
2023/05/21 11:10:33;;;;;;;15.35;8.40;;;21.90;99.90;;;;;;5042880;28;20493;-58
2023/05/21 11:13:15;;;;;;;8.75;7.32;;;21.90;99.90;;;;;;5028551;28;20025;-62
2023/05/21 11:15:56;;;;;;;12.55;7.85;;;21.80;99.90;;;;;;5040892;28;20415;-61
2023/05/21 11:18:34;;;;;;;13.48;8.27;;;21.70;99.90;;;;;;5035871;28;20229;-61
2023/05/21 11:21:07;;;;;;;10.65;7.60;;;21.70;99.90;;;;;;5040376;28;20422;-59
2023/05/21 11:23:52;;;;;;;9.50;8.38;;;21.80;99.90;;;;;;5045662;28;20578;-58
2023/05/21 11:26:22;;;;;;;9.27;7.90;;;21.90;99.90;;;;;;5045646;28;20033;-61
2023/05/21 11:29:03;;;;;;;9.57;7.22;;;22.10;99.90;;;;;;5045567;28;20135;-61
2023/05/21 11:31:36;;;;;;;11.50;8.13;;;22.10;99.90;;;;;;5043962;28;20044;-60
2023/05/21 11:34:17;;;;;;;11.30;8.38;;;22.10;99.90;;;;;;5045760;28;20090;-58
2023/05/21 11:36:47;;;;;;;9.27;8.13;;;22.20;99.90;;;;;;5044000;28;20329;-58
2023/05/21 11:39:20;;;;;;;11.75;8.60;;;22.20;99.90;;;;;;5045101;28;20178;-57
2023/05/21 11:41:49;;;;;;;10.63;7.72;;;22.30;99.90;;;;;;5045217;28;20051;-61
2023/05/21 11:44:15;;;;;;;8.13;7.32;;;22.40;99.90;;;;;;5045309;28;20094;-60
2023/05/21 11:46:42;;;;;;;10.88;7.78;;;22.60;99.90;;;;;;5026370;28;20025;-60
2023/05/21 11:49:08;;;;;;;13.02;8.05;;;22.70;99.90;;;;;;5029003;28;20025;-59
2023/05/21 11:51:35;;;;;;;11.32;7.78;;;22.80;99.90;;;;;;5026853;28;20028;-60
2023/05/21 11:54:01;;;;;;;9.55;8.05;;;22.90;99.90;;;;;;5045178;28;20391;-62
2023/05/21 11:56:27;;;;;;;11.70;8.63;;;22.80;99.90;;;;;;5044041;28;20036;-56
2023/05/21 11:58:54;;;;;;;9.18;7.72;;;22.80;99.90;;;;;;5028747;28;20067;-61
2023/05/21 12:01:21;;;;;;;9.35;7.55;;;22.80;99.90;;;;;;5044837;28;20156;-62
2023/05/21 12:03:47;;;;;;;9.50;8.15;;;22.90;99.90;;;;;;5044722;28;20610;-57
2023/05/21 12:06:13;;;;;;;12.50;8.27;;;22.80;99.90;;;;;;5044864;28;20525;-59
2023/05/21 12:08:38;;;;;;;12.15;8.88;;;22.90;99.90;;;;;;5044824;28;20415;-59
2023/05/21 12:11:04;;;;;;;11.70;8.55;;;22.90;99.90;;;;;;5045075;28;20025;-61
2023/05/21 12:13:30;;;;;;;8.57;7.57;;;22.90;99.90;;;;;;5045221;28;20025;-60
2023/05/21 12:15:59;;;;;;;10.23;8.50;;;23.00;99.90;;;;;;5044888;28;20029;-60
2023/05/21 12:18:25;;;;;;;8.02;7.22;;;23.10;99.90;;;;;;5043877;28;20029;-56
2023/05/21 12:20:51;;;;;;;9.52;8.00;;;23.10;99.90;;;;;;5044307;28;20467;-59
2023/05/21 12:23:22;;;;;;;10.52;8.50;;;23.10;99.90;;;;;;5044661;28;20025;-61
2023/05/21 12:25:48;;;;;;;9.18;7.88;;;23.20;99.90;;;;;;5044391;28;20162;-59
2023/05/21 12:28:14;;;;;;;9.85;7.82;;;23.20;99.90;;;;;;5040937;28;20128;-61
2023/05/21 12:30:40;;;;;;;10.02;7.95;;;23.20;99.90;;;;;;5040380;28;20203;-62
2023/05/21 12:33:05;;;;;;;12.93;8.07;;;23.30;99.90;;;;;;5043956;28;20538;-62
2023/05/21 12:35:31;;;;;;;11.15;7.95;;;23.40;99.90;;;;;;5036148;28;20630;-62
2023/05/21 12:37:59;;;;;;;9.07;7.65;;;23.60;99.90;;;;;;5039547;28;20530;-60
2023/05/21 12:40:37;;;;;;;12.30;8.25;;;23.60;99.90;;;;;;5038982;28;20029;-57
2023/05/21 12:43:04;;;;;;;10.68;8.43;;;23.70;99.90;;;;;;5039047;28;20083;-60
2023/05/21 12:45:31;;;;;;;9.52;8.25;;;23.70;99.90;;;;;;5038390;28;20423;-60
2023/05/21 12:47:59;;;;;;;8.60;7.72;;;23.80;99.90;;;;;;5040337;28;20154;-62
2023/05/21 12:50:25;;;;;;;11.48;8.23;;;24.00;99.90;;;;;;5041425;28;20084;-63